Angra Dos Reis, Brazil

2:23 AM BRT on September 03, 2015 (GMT -0300)
Santa Cruz Air Base | | Change Station
CLOSE
Current Station
Airport
Location: Santa Cruz,
Elevation: 10 ft
Nearby Weather Stations

Elev 10 ft 22.93 °S, 43.72 °W | Updated 23 minutes ago

Overcast
Overcast
64 °F
Feels Like 64 °F
N
4
Wind Variable Wind from North

Today
High -- | Low -- °F
--% Chance of Precip.
Yesterday
High -- | Low -- °F
Precip. -- in
6:06 AM 5:47 PM
Waning Gibbous, 74% visible
Pressure 30.12 in
Visibility 6.2 miles
Clouds Overcast 3000 ft
Dew Point 57 °F
Humidity 77%
Rainfall 0.00 in
Snow Depth Not available.
UV 0 out of 12
Pollen Not available.
Air Quality Not available.
Flu Activity Not available.
METAR SBSC 030500Z 01003KT 9999 OVC030 18/14 Q1020
Pressure 30.12 in
Visibility 6.2 miles
Clouds Overcast 3000 ft
Dew Point 57 °F
Humidity 77%
Rainfall 0.00 in
Snow Depth Not available.
UV 0 out of 12
Pollen Not available.
Air Quality Not available.
Flu Activity Not available.
METAR SBSC 030500Z 01003KT 9999 OVC030 18/14 Q1020

10-Day Weather Forecast

×

Almanac

Astronomy

Sep. 03, 2015 Rise Set
Actual Time
Civil Twilight
Nautical Twilight
Astronomical Twilight
Moon
Length of Visible Light
Length of Day
Tomorrow will be .
, % of the Moon is Illuminated

Today's Extremes

Country Highs Country Lows

Community

WunderPhotos

Upload Photos

1,851,914 photos uploaded!

WunderBlogs® & News

Nearby

Air Quality

  Air Quality AQ Index Pollutant
Not available.

Snow Depth

Station Depth Elevation

Earthquake Activity

City Distance Mag. Time & Date
Minimum magnitude displayed is 2.5.

Coastal Water Temperatures

Place Temperature

Stations

Nearby Weather Stations

Station Location Temp. Windchill Dew Point Humidity Wind Precip. Elev Updated Type